Weather History for KSOW - January, 2013

Change the Weather History Date:

Sunday, January 13, 2013

  Actual Average Record
Temperature  
Mean Temperature 14 °F -  
Max Temperature 24 °F 45 °F 63 °F (1986)
Min Temperature 3 °F 27 °F 2 °F (1992)
Degree Days  
Heating Degree Days 52    
Moisture  
Dew Point -1 °F    
Average Humidity 55    
Maximum Humidity 78    
Minimum Humidity 33    
Precipitation  
Precipitation 0.00 in - - ()
Sea Level Pressure  
Sea Level Pressure 29.91 in    
Wind  
Wind Speed 10 mph (South)    
Max Wind Speed 16 mph    
Max Gust Speed 24 mph    
Visibility 10 miles    
Events      
Averages and records for this station are not official NWS values.
T = Trace of Precipitation, MM = Missing Value Source: NWS Daily Summary

Daily Weather History Graph

Daily Weather History Graph

Search for Another Location

Airport or City:

Trip Planner

Search our weather history database for the weather conditions in past years. The results will help you decide how hot, cold, wet, or windy it might be!

Date:

Astronomy

Jan. 13, 2013 Rise Set
Actual Time 7:26 AM MST 5:31 PM MST
Civil Twilight 6:58 AM MST 5:59 PM MST
Nautical Twilight 6:28 AM MST 6:29 PM MST
Astronomical Twilight 5:57 AM MST 7:00 PM MST
Moon 8:34 AM MST (1/13) 8:05 PM MST (1/13)
Length of Visible Light 11h 00m
Length of Day
10h 05m
Waxing Crescent, 5% of the Moon is Illuminated
Jan 13
Waxing Crescent
Jan 18
First Quarter
Jan 26
Full
Feb 3
Last Quarter
Feb 10
New

Hourly Weather History & Observations

Time (MST) Temp. Windchill Dew Point Humidity Pressure Visibility Wind Dir Wind Speed Gust Speed Precip Events Conditions
12:15 AM 8.6 °F -2.6 °F -0.4 °F 67% 29.95 in 10.0 mi South 6.9 mph - N/A   Clear
12:35 AM 8.6 °F -4.7 °F -0.4 °F 67% 29.95 in 10.0 mi South 9.2 mph - N/A   Clear
12:55 AM 8.6 °F -3.7 °F -0.4 °F 67% 29.95 in 10.0 mi South 8.1 mph - N/A   Clear
1:15 AM 8.6 °F -4.7 °F -0.4 °F 67% 29.95 in 10.0 mi South 9.2 mph - N/A   Clear
1:35 AM 8.6 °F -4.7 °F -0.4 °F 67% 29.95 in 10.0 mi South 9.2 mph - N/A   Clear
1:55 AM 8.6 °F -5.5 °F -0.4 °F 67% 29.95 in 10.0 mi South 10.4 mph - N/A   Clear
2:15 AM 6.8 °F -6.9 °F -0.4 °F 72% 29.95 in 10.0 mi South 9.2 mph - N/A   Clear
2:35 AM 6.8 °F -6.9 °F -0.4 °F 72% 29.95 in 10.0 mi SSE 9.2 mph - N/A   Clear
2:55 AM 5.0 °F -8.1 °F -0.4 °F 78% 29.95 in 10.0 mi South 8.1 mph - N/A   Clear
3:15 AM 5.0 °F -8.1 °F -2.2 °F 72% 29.95 in 10.0 mi South 8.1 mph - N/A   Clear
3:35 AM 3.2 °F -9.1 °F -2.2 °F 78% 29.94 in 10.0 mi South 6.9 mph - N/A   Clear
3:55 AM 3.2 °F -9.1 °F -2.2 °F 78% 29.93 in 10.0 mi SSE 6.9 mph - N/A   Clear
4:15 AM 3.2 °F -10.3 °F -2.2 °F 78% 29.92 in 10.0 mi South 8.1 mph - N/A   Clear
4:35 AM 6.8 °F -6.9 °F -0.4 °F 72% 29.92 in 10.0 mi South 9.2 mph - N/A   Clear
4:55 AM 6.8 °F -6.9 °F -2.2 °F 67% 29.91 in 10.0 mi South 9.2 mph - N/A   Clear
5:15 AM 8.6 °F -5.5 °F -0.4 °F 67% 29.91 in 10.0 mi South 10.4 mph - N/A   Clear
5:35 AM 8.6 °F -5.5 °F -0.4 °F 67% 29.91 in 10.0 mi South 10.4 mph - N/A   Clear
5:55 AM 8.6 °F -6.3 °F -0.4 °F 67% 29.91 in 10.0 mi South 11.5 mph - N/A   Clear
6:15 AM 6.8 °F -9.3 °F -0.4 °F 72% 29.92 in 10.0 mi South 12.7 mph - N/A   Clear
6:35 AM 8.6 °F -7.0 °F -0.4 °F 67% 29.93 in 10.0 mi South 12.7 mph - N/A   Clear
6:55 AM 8.6 °F -7.0 °F -0.4 °F 67% 29.93 in 10.0 mi South 12.7 mph - N/A   Clear
7:15 AM 6.8 °F -9.3 °F -0.4 °F 72% 29.94 in 10.0 mi South 12.7 mph - N/A   Clear
7:35 AM 8.6 °F -6.3 °F -0.4 °F 67% 29.94 in 10.0 mi South 11.5 mph 17.3 mph N/A   Clear
7:55 AM 10.4 °F -5.4 °F -0.4 °F 62% 29.95 in 10.0 mi South 13.8 mph - N/A   Clear
8:15 AM 10.4 °F -4.8 °F -0.4 °F 62% 29.95 in 10.0 mi South 12.7 mph - N/A   Clear
8:35 AM 14.0 °F -0.2 °F -0.4 °F 53% 29.96 in 10.0 mi South 12.7 mph - N/A   Clear
8:55 AM 14.0 °F 0.5 °F -0.4 °F 53% 29.96 in 10.0 mi South 11.5 mph - N/A   Clear
9:15 AM 15.8 °F 3.4 °F -0.4 °F 49% 29.96 in 10.0 mi South 10.4 mph - N/A   Clear
9:35 AM 17.6 °F 3.7 °F 1.4 °F 49% 29.96 in 10.0 mi South 13.8 mph - N/A   Clear
9:55 AM 19.4 °F 6.0 °F 1.4 °F 46% 29.96 in 10.0 mi South 13.8 mph 17.3 mph N/A   Clear
10:15 AM 19.4 °F 6.0 °F 1.4 °F 46% 29.96 in 10.0 mi SSW 13.8 mph 19.6 mph N/A   Clear
10:35 AM 19.4 °F 6.6 °F 1.4 °F 46% 29.95 in 10.0 mi SSW 12.7 mph - N/A   Clear
10:55 AM 19.4 °F 5.0 °F -0.4 °F 42% 29.94 in 10.0 mi SSW 16.1 mph 20.7 mph N/A   Clear
11:15 AM 21.2 °F 7.8 °F -0.4 °F 39% 29.94 in 10.0 mi SW 15.0 mph 23.0 mph N/A   Clear
11:35 AM 21.2 °F 7.8 °F -0.4 °F 39% 29.92 in 10.0 mi SSW 15.0 mph 23.0 mph N/A   Clear
11:55 AM 23.0 °F 9.6 °F -0.4 °F 36% 29.91 in 10.0 mi SSW 16.1 mph - N/A   Clear
12:15 PM 23.0 °F 11.7 °F -0.4 °F 36% 29.89 in 10.0 mi SSW 11.5 mph - N/A   Clear
12:35 PM 23.0 °F 9.6 °F -0.4 °F 36% 29.88 in 10.0 mi South 16.1 mph 20.7 mph N/A   Clear
12:55 PM 23.0 °F 9.6 °F -0.4 °F 36% 29.87 in 10.0 mi South 16.1 mph 19.6 mph N/A   Clear
1:15 PM 23.0 °F 10.1 °F -0.4 °F 36% 29.87 in 10.0 mi SW 15.0 mph 20.7 mph N/A   Clear
1:35 PM 23.0 °F 11.1 °F -0.4 °F 36% 29.86 in 10.0 mi SSW 12.7 mph 18.4 mph N/A   Clear
1:55 PM 23.0 °F 12.4 °F -0.4 °F 36% 29.86 in 10.0 mi SSW 10.4 mph 21.9 mph N/A   Clear
2:15 PM 23.0 °F 13.1 °F -0.4 °F 36% 29.86 in 10.0 mi SSW 9.2 mph 20.7 mph N/A   Clear
2:35 PM 23.0 °F 11.1 °F -0.4 °F 36% 29.86 in 10.0 mi South 12.7 mph 24.2 mph N/A   Clear
2:55 PM 23.0 °F 11.1 °F 1.4 °F 39% 29.85 in 10.0 mi SSW 12.7 mph 23.0 mph N/A   Clear
3:15 PM 24.8 °F 12.9 °F -0.4 °F 34% 29.86 in 10.0 mi SSW 13.8 mph 20.7 mph N/A   Clear
3:35 PM 23.0 °F 11.1 °F -2.2 °F 33% 29.87 in 10.0 mi SSW 12.7 mph 20.7 mph N/A   Clear
3:55 PM 23.0 °F 9.6 °F -0.4 °F 36% 29.87 in 10.0 mi SW 16.1 mph - N/A   Clear
4:15 PM 23.0 °F 9.6 °F -0.4 °F 36% 29.87 in 10.0 mi WSW 16.1 mph - N/A   Clear
4:35 PM 23.0 °F 11.7 °F -0.4 °F 36% 29.88 in 10.0 mi SSW 11.5 mph - N/A   Clear
4:55 PM 23.0 °F 11.7 °F -0.4 °F 36% 29.88 in 10.0 mi SSW 11.5 mph 18.4 mph N/A   Clear
5:15 PM 21.2 °F 11.7 °F -0.4 °F 39% 29.89 in 10.0 mi SSW 8.1 mph - N/A   Clear
5:35 PM 19.4 °F 7.9 °F -0.4 °F 42% 29.89 in 10.0 mi SSW 10.4 mph - N/A   Clear
5:55 PM 17.6 °F 9.3 °F -0.4 °F 45% 29.89 in 10.0 mi SSW 5.8 mph - N/A   Clear
6:15 PM 15.8 °F 7.2 °F -0.4 °F 49% 29.89 in 10.0 mi SSW 5.8 mph - N/A   Clear
6:35 PM 15.8 °F 7.2 °F -0.4 °F 49% 29.89 in 10.0 mi SSW 5.8 mph - N/A   Clear
6:55 PM 15.8 °F 8.6 °F -0.4 °F 49% 29.89 in 10.0 mi SSW 4.6 mph - N/A   Clear
7:15 PM 10.4 °F 2.2 °F -2.2 °F 57% 29.89 in 10.0 mi SSW 4.6 mph - N/A   Clear
7:35 PM 8.6 °F -2.6 °F -4.0 °F 57% 29.89 in 10.0 mi SSE 6.9 mph - N/A   Clear
7:55 PM 8.6 °F -2.6 °F -4.0 °F 57% 29.89 in 10.0 mi SSE 6.9 mph - N/A   Clear
8:15 PM 8.6 °F -2.6 °F -4.0 °F 57% 29.88 in 10.0 mi SSE 6.9 mph - N/A   Clear
8:35 PM 10.4 °F -0.4 °F -4.0 °F 52% 29.88 in 10.0 mi South 6.9 mph - N/A   Clear
8:55 PM 10.4 °F -1.5 °F -4.0 °F 52% 29.87 in 10.0 mi South 8.1 mph - N/A   Clear
9:15 PM 8.6 °F -1.3 °F -4.0 °F 57% 29.88 in 10.0 mi South 5.8 mph - N/A   Clear
9:35 PM 8.6 °F 2.0 °F -4.0 °F 57% 29.88 in 10.0 mi South 3.5 mph - N/A   Clear
10:15 PM 5.0 °F - -5.8 °F 61% 29.88 in 10.0 mi Calm Calm - N/A   Clear
10:35 PM 6.8 °F - -4.0 °F 61% 29.88 in 10.0 mi Calm Calm - N/A   Clear
10:55 PM 6.8 °F -2.0 °F -4.0 °F 61% 29.88 in 10.0 mi SSE 4.6 mph - N/A   Clear
11:15 PM 5.0 °F - -4.0 °F 66% 29.88 in 10.0 mi Calm Calm - N/A   Clear
11:35 PM 5.0 °F -2.1 °F -4.0 °F 66% 29.88 in 10.0 mi SSE 3.5 mph - N/A   Clear
11:55 PM 6.8 °F -2.0 °F -2.2 °F 67% 29.88 in 10.0 mi SSE 4.6 mph - N/A   Clear